Bw Havfrost — LAMR4 — position and weather

sailwx.info

Track history (hours):
 
Tides and Currents Weather Stations Pressure Air Temp Water Temp Dewpoint Dewpoint Depression Visibility Wind Speed Wind Dir Waves Ship Positions

Bw Havfrost

Last reported at 2016-Mar-18 02:06 UTC. Time now 2016-Apr-29 19:46 UTC.
Position N 09°26' W 079°57'.
Warning: this ship's position is 42 days out of date.

Length 205 m; draft 11 m.

Type: Ship (hazmat cat C). MMSI: 257631000.

Date/timePositionNaut miles runAvg speedWind from/ knotsBaromVisibWave heightAir tempDewpointWater temp
2016-Mar-18 02:06N 09°26' W 079°57'  
2016-Mar-11 03:33N 29°04' W 093°37'1312.3
2016-Mar-11 02:31N 29°17' W 093°40'8 7.8
2016-Mar-11 01:33N 29°24' W 093°41'6 5.6
2016-Mar-11 00:33N 29°30' W 093°41'1110.7
2016-Mar-10 23:31N 29°38' W 093°49'8 8.2
2016-Mar-10 22:32N 29°45' W 093°54'7 6.3
2016-Mar-10 21:29N 29°52' W 093°56'7 7.2
2016-Mar-10 20:33N 29°57' W 093°52'6 5.8
2016-Mar-10 19:34N 30°00' W 093°57'  
Track history (hours):
 
Tides and Currents Weather Stations Pressure Air Temp Water Temp Dewpoint Dewpoint Depression Visibility Wind Speed Wind Dir Waves Ship Positions

Bw Havfrost

Last reported at 2016-Mar-18 02:06 UTC. Time now 2016-Apr-29 19:46 UTC.
Position N 09°26' W 079°57'.
Warning: this ship's position is 42 days out of date.

Length 205 m; draft 11 m.

Type: Ship (hazmat cat C). MMSI: 257631000.

Date/timePositionNaut miles runAvg speedWind from/ knotsBaromVisibWave heightAir tempDewpointWater temp
2016-Mar-18 02:06N 09°26' W 079°57'  
2016-Mar-11 03:33N 29°04' W 093°37'1312.3
2016-Mar-11 02:31N 29°17' W 093°40'8 7.8
2016-Mar-11 01:33N 29°24' W 093°41'6 5.6
2016-Mar-11 00:33N 29°30' W 093°41'1110.7
2016-Mar-10 23:31N 29°38' W 093°49'8 8.2
2016-Mar-10 22:32N 29°45' W 093°54'7 6.3
2016-Mar-10 21:29N 29°52' W 093°56'7 7.2
2016-Mar-10 20:33N 29°57' W 093°52'6 5.8
2016-Mar-10 19:34N 30°00' W 093°57'  

Dump ship's entire track history